DLH010 VOBL-VOHS
Flight info
| Callsign | DLH010 |
|---|---|
| Flight time | 0h 43m |
| Altitude | 35000 |
| Route | LATID7B LATID Q22 SAKRO SARKA6 |
| Aircraft | A20N/M-SDE2E3FGHIRWXY/LB1 |
Departure
| Time | 2026-04-21 12:26 |
|---|---|
| Airport | Kempegowda International Airport Bengaluru (VOBL) |
Arrival
| Time | 2026-04-21 13:10 |
|---|---|
| Airport | Rajiv Gandhi International Airport (VOHS) |
| Time | Latitude | Longitude | Altitude | Speed | Heading |
|---|---|---|---|---|---|
| 2026-04-21 11:57 | 13.20156 | 77.71319 | 3011 ft | 0 kts | 180° |
| 2026-04-21 12:09 | 13.20166 | 77.71319 | 3011 ft | 2 kts | 182° |
| 2026-04-21 12:09 | 13.20182 | 77.71320 | 3016 ft | 2 kts | 187° |
| 2026-04-21 12:10 | 13.20198 | 77.71323 | 3018 ft | 2 kts | 195° |
| 2026-04-21 12:10 | 13.20213 | 77.71329 | 3018 ft | 2 kts | 218° |
| 2026-04-21 12:10 | 13.20223 | 77.71342 | 3016 ft | 2 kts | 257° |
| 2026-04-21 12:10 | 13.20225 | 77.71353 | 3020 ft | 1 kts | 268° |
| 2026-04-21 12:11 | 13.20225 | 77.71354 | 3011 ft | 0 kts | 268° |
| 2026-04-21 12:13 | 13.20225 | 77.71353 | 3011 ft | 0 kts | 268° |
| 2026-04-21 12:13 | 13.20226 | 77.71350 | 3011 ft | 0 kts | 283° |
| 2026-04-21 12:14 | 13.20229 | 77.71348 | 3011 ft | 1 kts | 307° |
| 2026-04-21 12:14 | 13.20236 | 77.71345 | 3011 ft | 1 kts | 347° |
| 2026-04-21 12:14 | 13.20250 | 77.71348 | 3011 ft | 2 kts | 26° |
| 2026-04-21 12:14 | 13.20256 | 77.71364 | 3011 ft | 3 kts | 71° |
| 2026-04-21 12:15 | 13.20262 | 77.71399 | 3011 ft | 7 kts | 84° |
| 2026-04-21 12:15 | 13.20264 | 77.71418 | 3011 ft | 0 kts | 84° |
| 2026-04-21 12:15 | 13.20261 | 77.71386 | 3011 ft | 7 kts | 85° |
| 2026-04-21 12:15 | 13.20258 | 77.71324 | 3014 ft | 10 kts | 89° |
| 2026-04-21 12:16 | 13.20258 | 77.71274 | 3011 ft | 0 kts | 90° |
| 2026-04-21 12:16 | 13.20267 | 77.71282 | 3011 ft | 2 kts | 25° |
| 2026-04-21 12:16 | 13.20285 | 77.71279 | 3013 ft | 4 kts | 349° |
| 2026-04-21 12:16 | 13.20326 | 77.71276 | 3013 ft | 7 kts | 359° |
| 2026-04-21 12:17 | 13.20388 | 77.71277 | 3011 ft | 10 kts | 1° |
| 2026-04-21 12:17 | 13.20470 | 77.71277 | 3013 ft | 13 kts | 0° |
| 2026-04-21 12:17 | 13.20523 | 77.71245 | 3011 ft | 9 kts | 287° |
| 2026-04-21 12:17 | 13.20526 | 77.71173 | 3011 ft | 11 kts | 270° |
| 2026-04-21 12:18 | 13.20526 | 77.71082 | 3010 ft | 14 kts | 270° |
| 2026-04-21 12:18 | 13.20527 | 77.70972 | 3010 ft | 16 kts | 271° |
| 2026-04-21 12:18 | 13.20528 | 77.70848 | 3010 ft | 18 kts | 270° |
| 2026-04-21 12:18 | 13.20530 | 77.70712 | 3011 ft | 20 kts | 270° |
| 2026-04-21 12:19 | 13.20531 | 77.70567 | 3011 ft | 21 kts | 270° |
| 2026-04-21 12:19 | 13.20532 | 77.70409 | 3011 ft | 23 kts | 270° |
| 2026-04-21 12:19 | 13.20533 | 77.70242 | 3011 ft | 24 kts | 270° |
| 2026-04-21 12:19 | 13.20535 | 77.70066 | 3011 ft | 25 kts | 270° |
| 2026-04-21 12:20 | 13.20537 | 77.69882 | 3011 ft | 26 kts | 272° |
| 2026-04-21 12:20 | 13.20539 | 77.69692 | 3011 ft | 27 kts | 270° |
| 2026-04-21 12:20 | 13.20540 | 77.69495 | 3010 ft | 28 kts | 270° |
| 2026-04-21 12:20 | 13.20542 | 77.69291 | 3010 ft | 29 kts | 270° |
| 2026-04-21 12:21 | 13.20543 | 77.69082 | 3010 ft | 30 kts | 270° |
| 2026-04-21 12:21 | 13.20546 | 77.68869 | 3010 ft | 30 kts | 270° |
| 2026-04-21 12:21 | 13.20548 | 77.68664 | 3011 ft | 13 kts | 271° |
| 2026-04-21 12:21 | 13.20549 | 77.68649 | 3011 ft | 3 kts | 277° |
| 2026-04-21 12:22 | 13.20560 | 77.68622 | 3013 ft | 5 kts | 303° |
| 2026-04-21 12:22 | 13.20598 | 77.68615 | 3011 ft | 7 kts | 0° |
| 2026-04-21 12:22 | 13.20612 | 77.68615 | 3011 ft | 0 kts | 0° |
| 2026-04-21 12:23 | 13.20616 | 77.68615 | 3011 ft | 3 kts | 0° |
| 2026-04-21 12:23 | 13.20668 | 77.68621 | 3011 ft | 12 kts | 13° |
| 2026-04-21 12:23 | 13.20727 | 77.68664 | 3011 ft | 7 kts | 98° |
| 2026-04-21 12:24 | 13.20719 | 77.68731 | 3011 ft | 0 kts | 91° |
| 2026-04-21 12:24 | 13.20719 | 77.68736 | 3011 ft | 0 kts | 91° |
| 2026-04-21 12:25 | 13.20719 | 77.68741 | 3011 ft | 5 kts | 91° |
| 2026-04-21 12:25 | 13.20715 | 77.69092 | 3011 ft | 95 kts | 90° |
| 2026-04-21 12:25 | 13.20709 | 77.70040 | 3011 ft | 167 kts | 90° |
| 2026-04-21 12:26 | 13.20715 | 77.71396 | 3314 ft | 203 kts | 89° |
| 2026-04-21 12:26 | 13.20729 | 77.72919 | 3987 ft | 224 kts | 90° |
| 2026-04-21 12:26 | 13.20689 | 77.74597 | 4758 ft | 245 kts | 92° |
| 2026-04-21 12:26 | 13.20634 | 77.76348 | 5818 ft | 250 kts | 92° |
| 2026-04-21 12:27 | 13.20626 | 77.78152 | 6718 ft | 256 kts | 82° |
| 2026-04-21 12:27 | 13.21267 | 77.79852 | 7586 ft | 259 kts | 53° |
| 2026-04-21 12:27 | 13.22634 | 77.81051 | 8467 ft | 261 kts | 27° |
| 2026-04-21 12:27 | 13.24276 | 77.81880 | 9335 ft | 265 kts | 28° |
| 2026-04-21 12:28 | 13.25872 | 77.82851 | 10184 ft | 269 kts | 23° |
| 2026-04-21 12:28 | 13.27733 | 77.83265 | 10736 ft | 285 kts | 358° |
| 2026-04-21 12:28 | 13.29665 | 77.82768 | 11368 ft | 296 kts | 331° |
| 2026-04-21 12:28 | 13.31233 | 77.81417 | 12273 ft | 298 kts | 306° |
| 2026-04-21 12:29 | 13.32113 | 77.79489 | 13125 ft | 302 kts | 281° |
| 2026-04-21 12:29 | 13.32155 | 77.77328 | 13736 ft | 307 kts | 259° |
| 2026-04-21 12:29 | 13.31848 | 77.75151 | 13976 ft | 308 kts | 272° |
| 2026-04-21 12:29 | 13.32292 | 77.72997 | 14077 ft | 310 kts | 294° |
| 2026-04-21 12:30 | 13.33556 | 77.71147 | 14085 ft | 333 kts | 316° |
| 2026-04-21 12:30 | 13.35574 | 77.69810 | 14081 ft | 357 kts | 338° |
| 2026-04-21 12:30 | 13.38004 | 77.69265 | 14089 ft | 359 kts | 358° |
| 2026-04-21 12:30 | 13.40490 | 77.69499 | 14088 ft | 359 kts | 9° |
| 2026-04-21 12:31 | 13.42950 | 77.69975 | 14093 ft | 359 kts | 10° |
| 2026-04-21 12:31 | 13.45388 | 77.70400 | 14085 ft | 359 kts | 8° |
| 2026-04-21 12:31 | 13.47866 | 77.70729 | 14095 ft | 359 kts | 6° |
| 2026-04-21 12:31 | 13.50359 | 77.70982 | 14092 ft | 359 kts | 5° |
| 2026-04-21 12:32 | 13.52856 | 77.71194 | 14098 ft | 367 kts | 4° |
| 2026-04-21 12:32 | 13.55500 | 77.71427 | 14087 ft | 395 kts | 5° |
| 2026-04-21 12:32 | 13.58315 | 77.71751 | 14096 ft | 419 kts | 6° |
| 2026-04-21 12:32 | 13.61256 | 77.72114 | 14083 ft | 430 kts | 6° |
| 2026-04-21 12:33 | 13.64236 | 77.72481 | 14091 ft | 430 kts | 6° |
| 2026-04-21 12:33 | 13.67206 | 77.72841 | 14086 ft | 430 kts | 6° |
| 2026-04-21 12:33 | 13.70195 | 77.73197 | 14350 ft | 435 kts | 6° |
| 2026-04-21 12:33 | 13.73202 | 77.73552 | 15123 ft | 435 kts | 6° |
| 2026-04-21 12:34 | 13.76227 | 77.73907 | 15766 ft | 439 kts | 6° |
| 2026-04-21 12:34 | 13.79276 | 77.74265 | 16377 ft | 443 kts | 6° |
| 2026-04-21 12:34 | 13.82352 | 77.74627 | 16964 ft | 447 kts | 6° |
| 2026-04-21 12:34 | 13.85423 | 77.74988 | 17975 ft | 437 kts | 6° |
| 2026-04-21 12:35 | 13.88393 | 77.75338 | 19323 ft | 421 kts | 6° |
| 2026-04-21 12:35 | 13.91250 | 77.75674 | 20687 ft | 405 kts | 6° |
| 2026-04-21 12:35 | 13.94005 | 77.75999 | 21550 ft | 405 kts | 6° |
| 2026-04-21 12:35 | 13.96801 | 77.76494 | 22103 ft | 410 kts | 13° |
| 2026-04-21 12:36 | 13.99542 | 77.77359 | 22698 ft | 414 kts | 19° |
| 2026-04-21 12:36 | 14.02273 | 77.78365 | 23272 ft | 417 kts | 19° |
| 2026-04-21 12:36 | 14.05025 | 77.79368 | 23831 ft | 421 kts | 19° |
| 2026-04-21 12:36 | 14.07808 | 77.80377 | 24364 ft | 425 kts | 19° |
| 2026-04-21 12:37 | 14.10635 | 77.81403 | 24547 ft | 438 kts | 19° |
| 2026-04-21 12:37 | 14.13529 | 77.82454 | 24685 ft | 450 kts | 19° |
| 2026-04-21 12:37 | 14.16521 | 77.83541 | 24814 ft | 462 kts | 19° |
| 2026-04-21 12:37 | 14.19587 | 77.84656 | 24924 ft | 473 kts | 19° |
| 2026-04-21 12:38 | 14.22731 | 77.85800 | 25037 ft | 483 kts | 19° |
| 2026-04-21 12:38 | 14.25932 | 77.86965 | 25149 ft | 491 kts | 19° |
| 2026-04-21 12:38 | 14.29181 | 77.88148 | 25244 ft | 496 kts | 19° |
| 2026-04-21 12:38 | 14.32451 | 77.89339 | 25446 ft | 498 kts | 19° |
| 2026-04-21 12:39 | 14.35710 | 77.90526 | 25721 ft | 497 kts | 19° |
| 2026-04-21 12:39 | 14.38973 | 77.91715 | 26003 ft | 496 kts | 19° |
| 2026-04-21 12:39 | 14.42184 | 77.92886 | 26282 ft | 495 kts | 19° |
| 2026-04-21 12:39 | 14.45442 | 77.94063 | 26553 ft | 495 kts | 18° |
| 2026-04-21 12:40 | 14.48760 | 77.95004 | 26821 ft | 494 kts | 12° |
| 2026-04-21 12:40 | 14.52138 | 77.95637 | 27087 ft | 493 kts | 9° |
| 2026-04-21 12:40 | 14.54388 | 77.96010 | 27262 ft | 493 kts | 9° |
| 2026-04-21 12:40 | 14.58905 | 77.96774 | 27557 ft | 490 kts | 9° |
| 2026-04-21 12:41 | 14.62283 | 77.97349 | 27665 ft | 492 kts | 9° |
| 2026-04-21 12:41 | 14.65665 | 77.97924 | 27899 ft | 491 kts | 9° |
| 2026-04-21 12:41 | 14.69031 | 77.98496 | 28153 ft | 491 kts | 9° |
| 2026-04-21 12:41 | 14.71255 | 77.98873 | 28305 ft | 491 kts | 9° |
| 2026-04-21 12:42 | 14.74630 | 77.99445 | 28561 ft | 490 kts | 9° |
| 2026-04-21 12:42 | 14.77989 | 78.00015 | 28803 ft | 489 kts | 9° |
| 2026-04-21 12:42 | 14.82441 | 78.00770 | 29112 ft | 488 kts | 9° |
| 2026-04-21 12:42 | 14.84709 | 78.01155 | 29268 ft | 488 kts | 9° |
| 2026-04-21 12:43 | 14.88056 | 78.01723 | 29495 ft | 488 kts | 9° |
| 2026-04-21 12:43 | 14.91360 | 78.02284 | 29723 ft | 487 kts | 9° |
| 2026-04-21 12:43 | 14.94706 | 78.02852 | 29961 ft | 487 kts | 9° |
| 2026-04-21 12:43 | 14.98045 | 78.03419 | 30202 ft | 486 kts | 9° |
| 2026-04-21 12:44 | 15.01380 | 78.03986 | 30432 ft | 486 kts | 9° |
| 2026-04-21 12:44 | 15.04724 | 78.04554 | 30685 ft | 486 kts | 9° |
| 2026-04-21 12:44 | 15.08066 | 78.05122 | 30945 ft | 486 kts | 9° |
| 2026-04-21 12:44 | 15.11399 | 78.05689 | 31249 ft | 485 kts | 9° |
| 2026-04-21 12:45 | 15.14736 | 78.06257 | 31495 ft | 485 kts | 9° |
| 2026-04-21 12:45 | 15.18067 | 78.06824 | 31765 ft | 484 kts | 9° |
| 2026-04-21 12:45 | 15.21393 | 78.07390 | 32036 ft | 483 kts | 9° |
| 2026-04-21 12:45 | 15.24662 | 78.07946 | 32302 ft | 482 kts | 9° |
| 2026-04-21 12:46 | 15.27978 | 78.08511 | 32523 ft | 483 kts | 9° |
| 2026-04-21 12:46 | 15.31298 | 78.09077 | 32763 ft | 482 kts | 9° |
| 2026-04-21 12:46 | 15.34603 | 78.09640 | 33033 ft | 481 kts | 9° |
| 2026-04-21 12:46 | 15.37908 | 78.10200 | 33230 ft | 481 kts | 9° |
| 2026-04-21 12:47 | 15.41227 | 78.10744 | 33463 ft | 481 kts | 8° |
| 2026-04-21 12:47 | 15.44533 | 78.11279 | 33691 ft | 480 kts | 8° |
| 2026-04-21 12:47 | 15.47795 | 78.11807 | 33900 ft | 480 kts | 8° |
| 2026-04-21 12:47 | 15.51100 | 78.12344 | 34118 ft | 479 kts | 8° |
| 2026-04-21 12:48 | 15.54394 | 78.12880 | 34334 ft | 479 kts | 8° |
| 2026-04-21 12:48 | 15.57683 | 78.13417 | 34547 ft | 478 kts | 8° |
| 2026-04-21 12:48 | 15.60971 | 78.13954 | 34749 ft | 478 kts | 8° |
| 2026-04-21 12:48 | 15.64252 | 78.14491 | 34951 ft | 477 kts | 8° |
| 2026-04-21 12:49 | 15.67533 | 78.15027 | 35103 ft | 476 kts | 8° |
| 2026-04-21 12:49 | 15.74033 | 78.16091 | 35091 ft | 475 kts | 8° |
| 2026-04-21 12:50 | 15.80588 | 78.17164 | 35078 ft | 475 kts | 8° |
| 2026-04-21 12:50 | 15.87121 | 78.18234 | 35094 ft | 475 kts | 8° |
| 2026-04-21 12:51 | 15.93584 | 78.19293 | 34930 ft | 463 kts | 8° |
| 2026-04-21 12:51 | 15.96709 | 78.19806 | 34428 ft | 459 kts | 8° |
| 2026-04-21 12:51 | 15.99872 | 78.20324 | 33660 ft | 459 kts | 8° |
| 2026-04-21 12:51 | 16.03039 | 78.20844 | 32815 ft | 461 kts | 8° |
| 2026-04-21 12:52 | 16.06217 | 78.21366 | 31938 ft | 463 kts | 8° |
| 2026-04-21 12:52 | 16.09412 | 78.21890 | 31045 ft | 465 kts | 8° |
| 2026-04-21 12:52 | 16.12619 | 78.22417 | 30118 ft | 466 kts | 8° |
| 2026-04-21 12:52 | 16.15828 | 78.22944 | 29143 ft | 468 kts | 8° |
| 2026-04-21 12:53 | 16.19044 | 78.23473 | 28436 ft | 464 kts | 8° |
| 2026-04-21 12:53 | 16.22232 | 78.23997 | 27447 ft | 465 kts | 8° |
| 2026-04-21 12:53 | 16.25405 | 78.24517 | 26242 ft | 471 kts | 8° |
| 2026-04-21 12:53 | 16.28657 | 78.25049 | 25035 ft | 475 kts | 8° |
| 2026-04-21 12:54 | 16.31930 | 78.25586 | 23865 ft | 477 kts | 8° |
| 2026-04-21 12:54 | 16.35199 | 78.26121 | 22934 ft | 473 kts | 8° |
| 2026-04-21 12:54 | 16.38430 | 78.26652 | 22081 ft | 466 kts | 8° |
| 2026-04-21 12:54 | 16.41617 | 78.27175 | 21224 ft | 461 kts | 8° |
| 2026-04-21 12:55 | 16.44771 | 78.27692 | 20374 ft | 455 kts | 8° |
| 2026-04-21 12:55 | 16.47881 | 78.28203 | 19541 ft | 449 kts | 8° |
| 2026-04-21 12:55 | 16.50953 | 78.28708 | 18688 ft | 444 kts | 8° |
| 2026-04-21 12:55 | 16.53980 | 78.29205 | 17858 ft | 438 kts | 8° |
| 2026-04-21 12:56 | 16.56979 | 78.29698 | 17028 ft | 433 kts | 8° |
| 2026-04-21 12:56 | 16.59942 | 78.30186 | 16198 ft | 428 kts | 8° |
| 2026-04-21 12:56 | 16.62871 | 78.30669 | 15377 ft | 423 kts | 8° |
| 2026-04-21 12:56 | 16.65758 | 78.31145 | 14560 ft | 418 kts | 8° |
| 2026-04-21 12:57 | 16.68613 | 78.31617 | 13745 ft | 413 kts | 8° |
| 2026-04-21 12:57 | 16.71403 | 78.32077 | 12931 ft | 408 kts | 8° |
| 2026-04-21 12:57 | 16.74202 | 78.32539 | 12117 ft | 404 kts | 8° |
| 2026-04-21 12:57 | 16.76960 | 78.32994 | 11312 ft | 399 kts | 8° |
| 2026-04-21 12:58 | 16.79691 | 78.33446 | 10513 ft | 395 kts | 8° |
| 2026-04-21 12:58 | 16.82390 | 78.33892 | 9726 ft | 390 kts | 8° |
| 2026-04-21 12:58 | 16.85060 | 78.34333 | 9025 ft | 385 kts | 8° |
| 2026-04-21 12:58 | 16.87627 | 78.34758 | 9058 ft | 359 kts | 8° |
| 2026-04-21 12:59 | 16.90019 | 78.35154 | 9082 ft | 337 kts | 8° |
| 2026-04-21 12:59 | 16.92276 | 78.35527 | 8992 ft | 321 kts | 8° |
| 2026-04-21 12:59 | 16.94408 | 78.35880 | 8862 ft | 307 kts | 8° |
| 2026-04-21 12:59 | 16.96478 | 78.36223 | 8736 ft | 293 kts | 8° |
| 2026-04-21 13:00 | 16.98463 | 78.36552 | 8512 ft | 285 kts | 8° |
| 2026-04-21 13:00 | 17.00419 | 78.36875 | 8128 ft | 283 kts | 8° |
| 2026-04-21 13:00 | 17.02360 | 78.37197 | 7732 ft | 282 kts | 8° |
| 2026-04-21 13:00 | 17.04262 | 78.37512 | 7351 ft | 280 kts | 8° |
| 2026-04-21 13:01 | 17.06173 | 78.37828 | 7139 ft | 277 kts | 8° |
| 2026-04-21 13:01 | 17.08094 | 78.38147 | 7093 ft | 280 kts | 8° |
| 2026-04-21 13:01 | 17.10013 | 78.38465 | 7089 ft | 279 kts | 8° |
| 2026-04-21 13:01 | 17.11911 | 78.38891 | 7087 ft | 279 kts | 22° |
| 2026-04-21 13:02 | 17.13494 | 78.40042 | 7090 ft | 280 kts | 49° |
| 2026-04-21 13:02 | 17.14423 | 78.41819 | 7090 ft | 281 kts | 76° |
| 2026-04-21 13:02 | 17.14587 | 78.45896 | 7089 ft | 281 kts | 92° |
| 2026-04-21 13:03 | 17.14528 | 78.47945 | 7088 ft | 281 kts | 91° |
| 2026-04-21 13:03 | 17.14502 | 78.49976 | 7046 ft | 276 kts | 90° |
| 2026-04-21 13:03 | 17.14506 | 78.51888 | 6605 ft | 273 kts | 89° |
| 2026-04-21 13:03 | 17.14529 | 78.53860 | 6254 ft | 279 kts | 89° |
| 2026-04-21 13:04 | 17.14570 | 78.55922 | 5688 ft | 284 kts | 89° |
| 2026-04-21 13:04 | 17.14614 | 78.58021 | 5034 ft | 292 kts | 89° |
| 2026-04-21 13:04 | 17.14658 | 78.60136 | 4709 ft | 287 kts | 89° |
| 2026-04-21 13:04 | 17.14728 | 78.62176 | 4598 ft | 273 kts | 82° |
| 2026-04-21 13:05 | 17.15343 | 78.63979 | 4552 ft | 258 kts | 57° |
| 2026-04-21 13:05 | 17.16556 | 78.65273 | 4447 ft | 245 kts | 32° |
| 2026-04-21 13:05 | 17.18098 | 78.65910 | 4350 ft | 233 kts | 8° |
| 2026-04-21 13:05 | 17.19648 | 78.65879 | 4255 ft | 222 kts | 346° |
| 2026-04-21 13:06 | 17.21052 | 78.65275 | 4043 ft | 217 kts | 325° |
| 2026-04-21 13:06 | 17.22135 | 78.64194 | 3788 ft | 216 kts | 304° |
| 2026-04-21 13:06 | 17.22763 | 78.62789 | 3695 ft | 216 kts | 283° |
| 2026-04-21 13:06 | 17.22937 | 78.61221 | 3689 ft | 216 kts | 274° |
| 2026-04-21 13:07 | 17.23081 | 78.59658 | 3690 ft | 216 kts | 275° |
| 2026-04-21 13:07 | 17.23168 | 78.58088 | 3690 ft | 216 kts | 271° |
| 2026-04-21 13:07 | 17.23177 | 78.56538 | 3690 ft | 216 kts | 269° |
| 2026-04-21 13:07 | 17.23156 | 78.54969 | 3625 ft | 214 kts | 269° |
| 2026-04-21 13:08 | 17.23124 | 78.53425 | 3425 ft | 209 kts | 268° |
| 2026-04-21 13:08 | 17.23091 | 78.51877 | 3316 ft | 216 kts | 268° |
| 2026-04-21 13:08 | 17.23057 | 78.50313 | 3045 ft | 213 kts | 268° |
| 2026-04-21 13:08 | 17.23024 | 78.48763 | 2765 ft | 213 kts | 268° |
| 2026-04-21 13:09 | 17.22990 | 78.47218 | 2487 ft | 212 kts | 268° |
| 2026-04-21 13:09 | 17.22953 | 78.45678 | 2225 ft | 211 kts | 268° |
| 2026-04-21 13:09 | 17.22870 | 78.44144 | 2070 ft | 211 kts | 268° |
| 2026-04-21 13:09 | 17.22908 | 78.42634 | 1976 ft | 177 kts | 270° |
| 2026-04-21 13:10 | 17.22875 | 78.41937 | 1968 ft | 32 kts | 266° |
| 2026-04-21 13:10 | 17.22867 | 78.41802 | 1967 ft | 16 kts | 267° |
| 2026-04-21 13:10 | 17.22864 | 78.41741 | 1966 ft | 0 kts | 267° |
| 2026-04-21 13:10 | 17.22864 | 78.41729 | 1966 ft | 0 kts | 275° |